Time;durP1;ratioP1;P1;durP2;ratioP2;P2;SDS_P1;SDS_P2;PMS_P1;PMS_P2;Temp;Humidity;BMP_temperature;BMP_pressure;BME280_temperature;BME280_humidity;BME280_pressure;Samples;Min_cycle;Max_cycle;Signal;HPM_P1;HPM_P2
2022/12/14 00:00:41;;;;;;;0.40;0.40;;;;;;;-1.03;100.00;99486.16;6041624;23;20015;-86
2022/12/14 00:03:07;;;;;;;0.70;0.70;;;;;;;-1.07;100.00;99474.44;6065585;23;20462;-86
2022/12/14 00:05:33;;;;;;;0.40;0.40;;;;;;;-1.23;100.00;99463.78;6042219;23;20474;-86
2022/12/14 00:07:58;;;;;;;1.08;1.00;;;;;;;-1.23;100.00;99461.06;6064717;23;20549;-86
2022/12/14 00:10:24;;;;;;;1.00;1.00;;;;;;;-1.35;100.00;99447.72;6042779;23;20448;-87
2022/12/14 00:12:49;;;;;;;0.82;0.82;;;;;;;-1.09;100.00;99487.66;6042628;23;20388;-86
2022/12/14 00:15:15;;;;;;;0.50;0.50;;;;;;;-1.10;100.00;99484.16;6017427;23;20495;-86
2022/12/14 00:17:40;;;;;;;1.52;0.57;;;;;;;-1.10;100.00;99486.09;6093823;23;20014;-86
2022/12/14 00:20:07;;;;;;;1.83;1.73;;;;;;;-1.35;100.00;99453.16;6093883;23;20466;-86
2022/12/14 00:22:33;;;;;;;0.45;0.45;;;;;;;-1.10;100.00;99492.31;6070692;23;20444;-86
2022/12/14 00:24:58;;;;;;;2.47;1.17;;;;;;;-1.17;100.00;99480.56;6045532;23;20447;-86
2022/12/14 00:27:24;;;;;;;0.30;0.30;;;;;;;-1.24;100.00;99464.94;6070368;23;20081;-86
2022/12/14 00:29:50;;;;;;;1.52;1.48;;;;;;;-1.34;100.00;99451.22;6094309;23;20018;-86
2022/12/14 00:32:15;;;;;;;0.55;0.55;;;;;;;-1.16;100.00;99482.13;6069678;23;20093;-86
2022/12/14 00:34:41;;;;;;;0.55;0.43;;;;;;;-1.19;100.00;99461.09;6094339;23;20066;-85
2022/12/14 00:37:06;;;;;;;0.57;0.57;;;;;;;-1.19;100.00;99459.16;6068553;23;20090;-86
2022/12/14 00:39:32;;;;;;;2.75;1.85;;;;;;;-1.27;100.00;99432.25;6094332;23;20431;-86
2022/12/14 00:41:57;;;;;;;1.10;0.82;;;;;;;-1.13;100.00;99460.38;6095210;23;20009;-86
2022/12/14 00:44:23;;;;;;;0.60;0.60;;;;;;;-1.16;100.00;99466.56;6094842;23;20459;-86
2022/12/14 00:46:48;;;;;;;0.63;0.63;;;;;;;-1.15;100.00;99467.38;6093174;23;20018;-87
2022/12/14 00:49:14;;;;;;;12.77;2.05;;;;;;;-1.42;100.00;99426.66;6095486;23;20070;-86
2022/12/14 00:51:39;;;;;;;1.70;1.38;;;;;;;-1.30;100.00;99449.31;6069688;23;20014;-84
2022/12/14 00:54:05;;;;;;;1.02;0.93;;;;;;;-1.38;100.00;99443.03;6093544;23;20518;-84
2022/12/14 00:56:31;;;;;;;0.73;0.73;;;;;;;-1.26;100.00;99448.22;6070030;23;20015;-87
2022/12/14 00:58:59;;;;;;;0.52;0.52;;;;;;;-1.13;100.00;99468.53;6094162;23;20285;-86
2022/12/14 01:01:24;;;;;;;1.00;1.00;;;;;;;-1.20;100.00;99454.09;6068748;23;20499;-86
2022/12/14 01:03:50;;;;;;;2.22;1.77;;;;;;;-1.15;100.00;99462.72;6045292;23;20049;-86
2022/12/14 01:06:18;;;;;;;3.88;2.78;;;;;;;-1.34;100.00;99432.97;6069067;23;20061;-86
2022/12/14 01:08:44;;;;;;;0.28;0.28;;;;;;;-1.23;100.00;99438.50;6070653;23;20352;-87
2022/12/14 01:11:10;;;;;;;0.90;0.85;;;;;;;-1.16;100.00;99472.03;6095066;23;20017;-86
2022/12/14 01:13:37;;;;;;;3.55;2.47;;;;;;;-1.36;100.00;99434.47;6069899;23;20517;-86
2022/12/14 01:16:04;;;;;;;12.80;1.15;;;;;;;-1.15;100.00;99468.16;6069429;23;20510;-86
2022/12/14 01:18:32;;;;;;;0.10;0.10;;;;;;;-1.27;100.00;99449.34;6069952;23;20041;-86
2022/12/14 01:21:10;;;;;;;1.42;1.02;;;;;;;-1.13;100.00;99460.38;6069451;23;20018;-86
2022/12/14 01:23:36;;;;;;;0.10;0.10;;;;;;;-1.20;100.00;99444.00;6093465;23;20343;-87
2022/12/14 01:26:02;;;;;;;0.82;0.82;;;;;;;-1.18;100.00;99440.91;6069090;23;20014;-86
2022/12/14 01:28:28;;;;;;;0.82;0.80;;;;;;;-1.28;100.00;99428.75;6069487;23;20118;-86
2022/12/14 01:30:53;;;;;;;2.17;1.40;;;;;;;-1.37;100.00;99409.19;6093016;23;20416;-86
2022/12/14 01:33:19;;;;;;;0.20;0.20;;;;;;;-1.13;100.00;99449.50;6092595;23;20045;-86
2022/12/14 01:35:44;;;;;;;0.30;0.30;;;;;;;-1.19;100.00;99442.84;6093322;23;20034;-86
2022/12/14 01:38:10;;;;;;;6.00;2.10;;;;;;;-1.39;100.00;99397.91;6069574;23;20051;-86
2022/12/14 01:40:36;;;;;;;0.90;0.90;;;;;;;-1.14;100.00;99442.50;6093357;23;20066;-86
2022/12/14 01:43:01;;;;;;;0.47;0.47;;;;;;;-1.13;100.00;99435.13;6068728;23;20435;-87
2022/12/14 01:45:27;;;;;;;0.90;0.90;;;;;;;-1.09;100.00;99425.81;6069591;23;20014;-86
2022/12/14 01:47:57;;;;;;;0.77;0.60;;;;;;;-1.16;100.00;99414.09;6068688;23;20077;-86
2022/12/14 01:50:33;;;;;;;1.85;1.52;;;;;;;-1.00;100.00;99425.53;6069358;23;20499;-86
2022/12/14 01:53:02;;;;;;;0.60;0.60;;;;;;;-1.12;100.00;99407.53;6068809;23;20336;-87
2022/12/14 01:55:33;;;;;;;1.40;1.40;;;;;;;-1.19;100.00;99396.56;6069179;23;20014;-86
2022/12/14 01:58:07;;;;;;;1.98;1.65;;;;;;;-1.11;100.00;99409.09;6069075;23;20412;-86
2022/12/14 02:00:32;;;;;;;1.98;1.33;;;;;;;-1.26;100.00;99391.06;6045245;23;20030;-87
2022/12/14 02:03:05;;;;;;;0.90;0.90;;;;;;;-1.17;100.00;99404.38;6068656;23;20015;-86
2022/12/14 02:05:33;;;;;;;0.88;0.88;;;;;;;-1.10;100.00;99399.78;6094143;23;20093;-86
2022/12/14 02:07:58;;;;;;;0.40;0.40;;;;;;;-1.31;100.00;99377.00;6069230;23;20324;-86
2022/12/14 02:10:25;;;;;;;0.05;0.05;;;;;;;-1.25;100.00;99391.84;6093254;23;20016;-86
2022/12/14 02:13:08;;;;;;;1.80;1.70;;;;;;;-1.07;100.00;99409.91;6066712;23;20002;-86
2022/12/14 02:15:34;;;;;;;14.18;2.40;;;;;;;-1.21;100.00;99387.22;6069036;23;20019;-86
2022/12/14 02:18:01;;;;;;;2.75;1.35;;;;;;;-1.13;100.00;99403.22;6068959;23;20064;-86
2022/12/14 02:20:31;;;;;;;0.20;0.20;;;;;;;-1.43;100.00;99356.28;6067830;23;20026;-86
2022/12/14 02:23:29;;;;;;;0.68;0.68;;;;;;;-1.08;100.00;99407.56;6068730;23;20023;-86
2022/12/14 02:26:26;;;;;;;0.55;0.55;;;;;;;-1.07;100.00;99407.19;6082634;23;20057;-86
2022/12/14 02:29:29;;;;;;;3.03;1.30;;;;;;;-1.12;100.00;99412.97;6092902;23;20113;-86
2022/12/14 02:32:17;;;;;;;0.22;0.22;;;;;;;-1.04;100.00;99416.53;6092151;23;20022;-86
2022/12/14 02:35:04;;;;;;;0.85;0.85;;;;;;;-1.09;100.00;99401.31;6092833;23;20022;-84
2022/12/14 02:37:48;;;;;;;2.38;0.90;;;;;;;-1.09;100.00;99390.44;6094798;23;20029;-86
2022/12/14 02:40:39;;;;;;;0.15;0.15;;;;;;;-1.16;100.00;99365.88;6068673;23;20149;-87
2022/12/14 02:43:32;;;;;;;3.65;1.88;;;;;;;-1.09;100.00;99379.56;6068925;23;20011;-86
2022/12/14 02:46:03;;;;;;;1.13;1.08;;;;;;;-1.10;100.00;99382.66;6045705;23;20014;-86
2022/12/14 02:48:33;;;;;;;0.85;0.85;;;;;;;-1.05;100.00;99385.06;6094957;23;20142;-86
2022/12/14 02:51:17;;;;;;;0.35;0.32;;;;;;;-1.14;100.00;99360.88;6093490;23;20018;-85
2022/12/14 02:54:12;;;;;;;0.63;0.63;;;;;;;-1.07;100.00;99388.13;6068995;23;20054;-86
2022/12/14 02:56:43;;;;;;;0.38;0.38;;;;;;;-1.19;100.00;99361.19;6043569;23;20029;-86
2022/12/14 02:59:09;;;;;;;0.70;0.70;;;;;;;-1.05;100.00;99369.47;6068670;23;20018;-87
2022/12/14 03:01:36;;;;;;;0.65;0.60;;;;;;;-1.06;100.00;99370.66;6044215;23;20038;-86
2022/12/14 03:04:02;;;;;;;0.40;0.40;;;;;;;-1.06;100.00;99364.44;6092586;23;20018;-86
2022/12/14 03:06:28;;;;;;;1.52;1.42;;;;;;;-1.05;100.00;99371.44;6092967;23;20399;-86
2022/12/14 03:09:09;;;;;;;4.00;3.63;;;;;;;-1.02;100.00;99384.28;6069067;23;20022;-86
2022/12/14 03:11:41;;;;;;;0.95;0.88;;;;;;;-1.05;100.00;99369.47;6093435;23;20089;-86
2022/12/14 03:14:16;;;;;;;1.13;1.10;;;;;;;-1.08;100.00;99370.25;6068687;23;20235;-86
2022/12/14 03:16:47;;;;;;;1.48;1.23;;;;;;;-1.12;100.00;99366.69;6087825;23;20024;-86
2022/12/14 03:19:27;;;;;;;1.85;1.75;;;;;;;-1.03;100.00;99361.72;6063741;23;20051;-86
2022/12/14 03:21:56;;;;;;;1.38;1.27;;;;;;;-1.08;100.00;99355.84;6062966;23;20317;-87
2022/12/14 03:24:26;;;;;;;0.30;0.30;;;;;;;-1.04;100.00;99357.44;6088214;23;20006;-86
2022/12/14 03:26:55;;;;;;;0.10;0.10;;;;;;;-1.19;100.00;99330.47;6039764;23;20076;-86
2022/12/14 03:29:26;;;;;;;0.57;0.57;;;;;;;-1.09;100.00;99352.34;6088434;23;20078;-86
2022/12/14 03:31:55;;;;;;;1.10;1.00;;;;;;;-1.07;100.00;99343.81;6062687;23;20045;-86
2022/12/14 03:34:26;;;;;;;2.05;1.40;;;;;;;-1.08;100.00;99353.91;6066129;23;20087;-86
2022/12/14 03:37:18;;;;;;;0.35;0.35;;;;;;;-1.05;100.00;99361.31;6065599;23;20355;-86
2022/12/14 03:39:44;;;;;;;0.57;0.57;;;;;;;-1.20;100.00;99337.84;6089328;23;20464;-86
2022/12/14 03:42:22;;;;;;;1.10;0.85;;;;;;;-1.24;100.00;99328.09;6065415;23;20050;-86
2022/12/14 03:44:52;;;;;;;0.28;0.28;;;;;;;-1.25;100.00;99321.88;6063610;23;20328;-86
2022/12/14 03:47:20;;;;;;;0.85;0.85;;;;;;;-1.03;100.00;99344.63;6065986;23;20019;-86
2022/12/14 03:50:00;;;;;;;0.55;0.55;;;;;;;-1.30;100.00;99303.19;6065525;23;20018;-86
2022/12/14 03:52:41;;;;;;;1.98;0.75;;;;;;;-1.24;100.00;99318.00;6066027;23;20118;-86
2022/12/14 03:55:26;;;;;;;0.20;0.20;;;;;;;-1.07;100.00;99328.25;6064729;23;20497;-86
2022/12/14 03:58:42;;;;;;;2.58;2.00;;;;;;;-1.12;100.00;99320.44;6064969;23;20047;-86
2022/12/14 04:01:32;;;;;;;0.68;0.68;;;;;;;-1.08;100.00;99315.78;6033880;23;20652;-86
2022/12/14 04:04:16;;;;;;;1.38;1.38;;;;;;;-1.08;100.00;99326.69;6088708;23;20026;-86
2022/12/14 04:07:06;;;;;;;0.47;0.47;;;;;;;-1.09;100.00;99325.13;6041235;23;20019;-86
2022/12/14 04:09:55;;;;;;;1.77;1.55;;;;;;;-1.14;100.00;99317.31;6041478;23;20018;-86
2022/12/14 04:21:11;;;;;;;0.45;0.45;;;;;;;-1.10;100.00;99326.28;6043674;23;20015;-86
2022/12/14 04:26:50;;;;;;;0.93;0.65;;;;;;;-1.19;100.00;99314.16;6065446;23;20519;-86
2022/12/14 04:32:33;;;;;;;1.85;1.75;;;;;;;-1.16;100.00;99310.66;6041794;23;20108;-86
2022/12/14 04:35:19;;;;;;;0.52;0.52;;;;;;;-1.20;100.00;99301.69;6038446;23;20015;-87
2022/12/14 04:37:50;;;;;;;1.00;1.00;;;;;;;-1.24;100.00;99279.13;6040991;23;20027;-87
2022/12/14 04:40:22;;;;;;;1.30;0.65;;;;;;;-1.19;100.00;99298.59;6063645;23;20019;-86
2022/12/14 04:42:58;;;;;;;1.55;1.45;;;;;;;-1.15;100.00;99299.41;6039689;23;20023;-86
2022/12/14 04:45:27;;;;;;;0.50;0.50;;;;;;;-1.18;100.00;99286.56;6040683;23;20015;-86
2022/12/14 04:48:05;;;;;;;1.33;1.30;;;;;;;-1.39;100.00;99255.69;6040336;23;20023;-86
2022/12/14 04:50:36;;;;;;;1.38;1.20;;;;;;;-1.34;100.00;99272.44;6063339;23;20015;-86
2022/12/14 04:53:09;;;;;;;0.80;0.80;;;;;;;-1.33;100.00;99282.16;6063907;23;20090;-86
2022/12/14 04:55:48;;;;;;;0.95;0.77;;;;;;;-1.27;100.00;99290.75;6063803;23;20154;-86
2022/12/14 04:58:18;;;;;;;1.13;0.63;;;;;;;-1.28;100.00;99289.97;6014960;23;20026;-87
2022/12/14 05:00:55;;;;;;;0.55;0.55;;;;;;;-1.28;100.00;99284.53;6014535;23;20329;-86
2022/12/14 05:03:26;;;;;;;0.75;0.68;;;;;;;-1.28;100.00;99289.19;6064433;23;20063;-86
2022/12/14 05:06:26;;;;;;;1.40;1.30;;;;;;;-1.29;100.00;99291.13;6040101;23;20085;-86
2022/12/14 05:08:54;;;;;;;0.93;0.93;;;;;;;-1.25;100.00;99302.81;6049953;23;20023;-87
2022/12/14 05:11:26;;;;;;;1.40;1.23;;;;;;;-1.45;100.00;99274.28;6038783;23;20018;-86
2022/12/14 05:13:52;;;;;;;0.30;0.30;;;;;;;-1.48;100.00;99266.88;6087150;23;20042;-86
2022/12/14 05:16:20;;;;;;;1.38;1.05;;;;;;;-1.37;100.00;99278.63;6040769;23;20348;-87
2022/12/14 05:18:45;;;;;;;4.10;1.58;;;;;;;-1.35;100.00;99295.34;6063884;23;20079;-86
2022/12/14 05:21:45;;;;;;;1.73;1.63;;;;;;;-1.44;100.00;99273.13;6063456;23;20006;-87
2022/12/14 05:23:59;;;;;;;0.85;0.85;;;;;;;-1.28;100.00;99291.91;6087588;23;20011;-86
2022/12/14 05:26:25;;;;;;;2.10;1.85;;;;;;;-1.32;100.00;99301.97;6062978;23;20014;-84
2022/12/14 05:28:51;;;;;;;2.72;1.95;;;;;;;-1.46;100.00;99267.28;6087260;23;20023;-87
2022/12/14 05:31:16;;;;;;;1.70;1.60;;;;;;;-1.37;100.00;99286.78;6063333;23;20212;-86
2022/12/14 05:33:42;;;;;;;0.65;0.47;;;;;;;-1.39;100.00;99289.09;6066154;23;20090;-86
2022/12/14 05:36:08;;;;;;;0.32;0.32;;;;;;;-1.39;100.00;99278.22;6063090;23;20021;-86
2022/12/14 05:38:34;;;;;;;1.52;1.48;;;;;;;-1.46;100.00;99267.28;6059517;23;20423;-87
2022/12/14 05:41:00;;;;;;;2.45;2.25;;;;;;;-1.41;100.00;99275.88;6061161;23;20011;-86
2022/12/14 05:43:26;;;;;;;1.80;1.48;;;;;;;-1.32;100.00;99278.28;6060362;23;20042;-87
2022/12/14 05:46:02;;;;;;;0.10;0.10;;;;;;;-1.29;100.00;99277.53;6059956;23;20419;-86
2022/12/14 05:48:28;;;;;;;11.25;2.60;;;;;;;-1.37;100.00;99273.16;6063639;23;20073;-86
2022/12/14 05:50:54;;;;;;;1.27;1.25;;;;;;;-1.60;100.00;99229.84;6037552;23;20003;-87
2022/12/14 05:53:19;;;;;;;1.65;0.85;;;;;;;-1.62;100.00;99225.97;6037617;23;20011;-87
2022/12/14 05:55:49;;;;;;;0.40;0.40;;;;;;;-1.48;100.00;99239.66;6062398;23;20059;-88
2022/12/14 05:58:15;;;;;;;4.45;3.20;;;;;;;-1.53;100.00;99226.41;6060267;23;20014;-87
2022/12/14 06:00:40;;;;;;;0.38;0.38;;;;;;;-1.35;100.00;99240.16;6035385;23;20094;-87
2022/12/14 06:03:06;;;;;;;0.20;0.20;;;;;;;-1.42;100.00;99240.91;6013386;23;20417;-87
2022/12/14 06:05:32;;;;;;;0.60;0.47;;;;;;;-1.32;100.00;99236.69;6013647;23;20022;-86
2022/12/14 06:07:57;;;;;;;1.55;1.45;;;;;;;-1.33;100.00;99243.31;6036838;23;20454;-87
2022/12/14 06:10:23;;;;;;;0.38;0.38;;;;;;;-1.30;100.00;99246.06;6011780;23;20015;-87
2022/12/14 06:12:49;;;;;;;0.80;0.80;;;;;;;-1.38;100.00;99222.66;6011280;23;20355;-87
2022/12/14 06:15:14;;;;;;;0.60;0.60;;;;;;;-1.44;100.00;99216.78;6014112;23;20027;-87
2022/12/14 06:17:44;;;;;;;4.60;2.35;;;;;;;-1.45;100.00;99219.88;6088811;23;20026;-87
2022/12/14 06:20:11;;;;;;;1.02;1.02;;;;;;;-1.40;100.00;99227.69;6088423;23;20026;-87
2022/12/14 06:22:39;;;;;;;2.50;1.55;;;;;;;-1.60;100.00;99197.22;6064527;23;20018;-86
2022/12/14 06:25:05;;;;;;;1.75;1.65;;;;;;;-1.40;100.00;99233.13;6066725;23;20029;-87
2022/12/14 06:27:31;;;;;;;0.90;0.90;;;;;;;-1.79;100.00;99173.00;6089211;23;20015;-87
2022/12/14 06:29:57;;;;;;;0.77;0.75;;;;;;;-1.70;100.00;99195.22;6089055;23;20069;-86
2022/12/14 06:32:23;;;;;;;2.05;1.00;;;;;;;-1.64;100.00;99203.78;6041958;23;20006;-85
2022/12/14 06:34:49;;;;;;;0.75;0.75;;;;;;;-1.43;100.00;99228.44;6090122;23;20033;-87
2022/12/14 06:37:14;;;;;;;1.75;1.65;;;;;;;-1.41;100.00;99226.13;6091553;23;20121;-87
2022/12/14 06:39:40;;;;;;;1.75;0.73;;;;;;;-1.35;100.00;99240.94;6065911;23;20010;-86
2022/12/14 06:42:07;;;;;;;0.10;0.10;;;;;;;-1.45;100.00;99230.75;6087921;23;20499;-85
2022/12/14 06:44:34;;;;;;;0.82;0.80;;;;;;;-1.52;100.00;99230.69;6064200;23;20011;-86
2022/12/14 06:47:00;;;;;;;0.90;0.85;;;;;;;-1.48;100.00;99242.38;6086843;23;20343;-86
2022/12/14 06:49:26;;;;;;;2.25;1.30;;;;;;;-1.45;100.00;99249.78;6091569;23;20014;-86
2022/12/14 06:51:51;;;;;;;1.17;1.15;;;;;;;-1.43;100.00;99250.22;6090125;23;20095;-87
2022/12/14 06:54:17;;;;;;;1.55;1.45;;;;;;;-1.47;100.00;99246.69;6091039;23;20014;-87
2022/12/14 06:56:44;;;;;;;0.55;0.55;;;;;;;-1.34;100.00;99260.78;6090111;23;20297;-90
2022/12/14 06:59:13;;;;;;;1.50;1.08;;;;;;;-1.59;100.00;99225.19;6066561;23;20053;-89
2022/12/14 07:01:39;;;;;;;1.90;1.75;;;;;;;-1.63;100.00;99197.97;6065939;23;20018;-89
2022/12/14 07:04:05;;;;;;;0.30;0.30;;;;;;;-1.35;100.00;99257.28;6092856;23;20037;-90
2022/12/14 07:06:35;;;;;;;0.50;0.50;;;;;;;-1.37;100.00;99256.84;6066327;23;20343;-88
2022/12/14 07:09:01;;;;;;;0.60;0.60;;;;;;;-1.33;100.00;99254.19;6091825;23;20009;-88
2022/12/14 07:11:28;;;;;;;1.20;1.08;;;;;;;-1.48;100.00;99239.66;6068102;23;20021;-88
2022/12/14 07:13:54;;;;;;;4.00;2.10;;;;;;;-1.36;100.00;99241.31;6068639;23;20534;-88
2022/12/14 07:16:24;;;;;;;1.73;1.63;;;;;;;-1.49;100.00;99238.09;6068589;23;20041;-89
2022/12/14 07:18:51;;;;;;;0.73;0.73;;;;;;;-1.42;100.00;99241.69;6068481;23;20053;-88
2022/12/14 07:21:18;;;;;;;0.60;0.60;;;;;;;-1.36;100.00;99255.69;6068598;23;20022;-89
2022/12/14 07:23:44;;;;;;;1.33;1.33;;;;;;;-1.34;100.00;99250.69;6068760;23;20022;-88
2022/12/14 07:26:13;;;;;;;2.45;1.50;;;;;;;-1.49;100.00;99224.50;6092114;23;20021;-89
2022/12/14 07:28:39;;;;;;;2.10;1.20;;;;;;;-1.34;100.00;99247.19;6067477;23;20018;-88
2022/12/14 07:31:09;;;;;;;0.43;0.43;;;;;;;-1.52;100.00;99208.94;6067608;23;20018;-89
2022/12/14 07:33:35;;;;;;;1.38;1.27;;;;;;;-1.34;100.00;99220.75;6068366;23;20014;-88
2022/12/14 07:36:23;;;;;;;0.90;0.90;;;;;;;-1.62;100.00;99185.16;6068013;23;20443;-86
2022/12/14 07:38:50;;;;;;;3.58;2.28;;;;;;;-1.56;100.00;99191.81;6068179;23;20018;-88
2022/12/14 07:41:29;;;;;;;0.20;0.20;;;;;;;-1.42;100.00;99213.69;6044774;23;20010;-88
2022/12/14 07:43:55;;;;;;;1.08;0.75;;;;;;;-1.29;100.00;99225.81;6068405;23;20101;-88
2022/12/14 07:46:27;;;;;;;1.33;1.25;;;;;;;-1.50;100.00;99184.88;6068281;23;20046;-89
2022/12/14 07:48:54;;;;;;;1.75;1.65;;;;;;;-1.48;100.00;99193.44;6067015;23;20049;-86
2022/12/14 07:51:22;;;;;;;0.75;0.75;;;;;;;-1.36;100.00;99212.19;6067950;23;20003;-86
2022/12/14 07:53:49;;;;;;;0.85;0.85;;;;;;;-1.39;100.00;99185.72;6068297;23;20346;-88
2022/12/14 07:56:19;;;;;;;2.80;0.75;;;;;;;-1.42;100.00;99202.81;6068617;23;20011;-90
2022/12/14 07:58:44;;;;;;;0.52;0.52;;;;;;;-1.39;100.00;99204.78;6068489;23;20014;-87
2022/12/14 08:01:12;;;;;;;1.17;1.13;;;;;;;-1.27;100.00;99223.53;6067688;23;20133;-87
2022/12/14 08:03:44;;;;;;;2.53;2.28;;;;;;;-1.24;100.00;99230.91;6068498;23;20045;-88
2022/12/14 08:06:10;;;;;;;1.45;1.15;;;;;;;-1.41;100.00;99193.47;6067744;23;20461;-89
2022/12/14 08:08:36;;;;;;;0.70;0.70;;;;;;;-1.42;100.00;99186.50;6067932;23;20006;-88
2022/12/14 08:11:02;;;;;;;5.57;4.13;;;;;;;-1.13;100.00;99231.78;6091505;23;20503;-88
2022/12/14 08:13:27;;;;;;;2.35;2.22;;;;;;;-1.20;100.00;99223.56;6092413;23;20011;-87
2022/12/14 08:15:53;;;;;;;5.45;1.50;;;;;;;-1.15;100.00;99223.22;6063087;23;20026;-88
2022/12/14 08:18:19;;;;;;;2.00;1.65;;;;;;;-1.26;100.00;99206.03;6063450;23;20019;-86
2022/12/14 08:20:51;;;;;;;2.08;1.00;;;;;;;-1.33;100.00;99194.34;6063158;23;20367;-86
2022/12/14 08:23:17;;;;;;;1.88;1.75;;;;;;;-1.12;100.00;99216.22;6038615;23;20026;-87
2022/12/14 08:25:42;;;;;;;1.25;1.15;;;;;;;-1.10;100.00;99214.72;6063351;23;20015;-88
2022/12/14 08:28:08;;;;;;;0.73;0.73;;;;;;;-1.06;100.00;99236.50;6017392;23;20029;-88
2022/12/14 08:30:38;;;;;;;0.25;0.25;;;;;;;-1.02;100.00;99242.75;6017351;23;20031;-89
2022/12/14 08:33:04;;;;;;;2.60;2.40;;;;;;;-0.97;100.00;99262.22;6040671;23;20023;-87
2022/12/14 08:35:32;;;;;;;1.20;1.10;;;;;;;-1.07;100.00;99243.09;6040360;23;20017;-88
2022/12/14 08:37:57;;;;;;;1.95;1.38;;;;;;;-0.90;100.00;99255.28;6041366;23;20014;-88
2022/12/14 08:40:23;;;;;;;1.23;1.17;;;;;;;-0.86;100.00;99256.84;6017690;23;20023;-88
2022/12/14 08:42:49;;;;;;;1.30;0.82;;;;;;;-0.83;100.00;99263.47;6041609;23;20015;-89
2022/12/14 08:45:15;;;;;;;2.63;1.13;;;;;;;-0.93;100.00;99240.47;6065071;23;20090;-89
2022/12/14 08:47:41;;;;;;;6.22;3.72;;;;;;;-0.97;100.00;99229.53;6065551;23;20174;-88
2022/12/14 08:50:07;;;;;;;0.55;0.55;;;;;;;-0.80;100.00;99249.09;6090820;23;20018;-88
2022/12/14 08:52:33;;;;;;;0.70;0.70;;;;;;;-1.04;100.00;99202.28;6088291;23;20168;-88
2022/12/14 08:54:59;;;;;;;1.20;1.10;;;;;;;-0.76;100.00;99244.44;6038280;23;20015;-88
2022/12/14 08:57:25;;;;;;;0.55;0.55;;;;;;;-1.01;100.00;99217.84;6065041;23;20025;-88
2022/12/14 08:59:50;;;;;;;1.52;1.33;;;;;;;-0.85;100.00;99235.88;6064424;23;20380;-88
2022/12/14 09:02:16;;;;;;;1.70;1.60;;;;;;;-0.87;100.00;99228.06;6040620;23;20046;-88
2022/12/14 09:04:42;;;;;;;0.50;0.50;;;;;;;-0.68;100.00;99233.22;6088029;23;20017;-87
2022/12/14 09:07:07;;;;;;;2.17;2.08;;;;;;;-0.83;100.00;99223.41;6061620;23;20110;-87
2022/12/14 09:09:36;;;;;;;1.02;0.40;;;;;;;-0.76;100.00;99233.56;6062703;23;20046;-87
2022/12/14 09:12:06;;;;;;;0.40;0.40;;;;;;;-0.79;100.00;99234.31;6062225;23;20015;-87
2022/12/14 09:14:33;;;;;;;4.15;1.45;;;;;;;-0.82;100.00;99229.66;6086518;23;20074;-87
2022/12/14 09:17:06;;;;;;;2.45;1.38;;;;;;;-0.83;100.00;99211.75;6062654;23;20014;-87
2022/12/14 09:19:34;;;;;;;2.17;1.92;;;;;;;-1.01;100.00;99185.19;6062670;23;20021;-87
2022/12/14 09:22:00;;;;;;;0.80;0.80;;;;;;;-0.71;100.00;99227.75;6041093;23;20022;-87
2022/12/14 09:24:28;;;;;;;0.50;0.50;;;;;;;-0.97;100.00;99177.06;6064757;23;20079;-88
2022/12/14 09:26:54;;;;;;;1.45;1.35;;;;;;;-1.03;100.00;99167.69;6065775;23;20007;-87
2022/12/14 09:29:20;;;;;;;1.75;1.30;;;;;;;-0.95;100.00;99172.00;6040355;23;20050;-87
2022/12/14 09:31:46;;;;;;;0.40;0.40;;;;;;;-0.79;100.00;99194.25;6064075;23;20010;-88
2022/12/14 09:34:11;;;;;;;0.95;0.90;;;;;;;-0.68;100.00;99207.94;6040218;23;20015;-88
2022/12/14 09:36:37;;;;;;;1.50;1.40;;;;;;;-0.52;100.00;99216.56;6063837;23;20018;-87
2022/12/14 09:39:03;;;;;;;1.00;1.00;;;;;;;-0.51;100.00;99215.41;6064380;23;20014;-87
2022/12/14 09:41:35;;;;;;;0.35;0.35;;;;;;;-0.55;100.00;99217.34;6064271;23;20015;-88
2022/12/14 09:44:18;;;;;;;0.73;0.73;;;;;;;-0.52;100.00;99202.94;6064069;23;20023;-88
2022/12/14 09:46:58;;;;;;;1.35;1.30;;;;;;;-0.46;100.00;99195.97;6041101;23;20018;-87
2022/12/14 09:49:33;;;;;;;0.50;0.50;;;;;;;-0.65;100.00;99155.44;6088372;23;20019;-88
2022/12/14 09:52:00;;;;;;;0.77;0.77;;;;;;;-0.49;100.00;99177.69;6088103;23;20414;-88
2022/12/14 09:54:32;;;;;;;1.20;1.15;;;;;;;-0.44;100.00;99188.19;6064199;23;20019;-87
2022/12/14 09:57:00;;;;;;;2.47;2.28;;;;;;;-0.44;100.00;99180.00;6041248;23;20022;-88
2022/12/14 09:59:28;;;;;;;0.75;0.75;;;;;;;-0.59;100.00;99140.28;6040939;23;20023;-87
2022/12/14 10:02:23;;;;;;;2.35;2.22;;;;;;;-0.45;100.00;99156.69;6065295;23;20030;-87
2022/12/14 10:05:23;;;;;;;0.73;0.47;;;;;;;-0.34;100.00;99148.53;6064357;23;20058;-88
2022/12/14 10:07:58;;;;;;;1.00;1.00;;;;;;;-0.30;100.00;99141.91;6016521;23;20055;-88
2022/12/14 10:10:42;;;;;;;0.85;0.85;;;;;;;-0.27;100.00;99143.09;6017578;23;20018;-87
2022/12/14 10:13:29;;;;;;;1.20;1.20;;;;;;;-0.19;100.00;99148.16;6064488;23;20033;-87
2022/12/14 10:16:19;;;;;;;1.38;1.30;;;;;;;-0.24;100.00;99145.81;6063571;23;20023;-88
2022/12/14 10:19:13;;;;;;;0.30;0.30;;;;;;;-0.39;100.00;99140.72;6064506;23;20045;-88
2022/12/14 10:21:50;;;;;;;3.45;1.75;;;;;;;-0.51;100.00;99152.75;6064235;23;20051;-88
2022/12/14 10:24:21;;;;;;;0.77;0.77;;;;;;;-0.53;100.00;99139.53;6040988;23;20023;-88
2022/12/14 10:26:50;;;;;;;2.42;2.22;;;;;;;-0.41;100.00;99134.88;6040662;23;20015;-88
2022/12/14 10:29:49;;;;;;;0.95;0.95;;;;;;;-0.44;100.00;99139.16;6040747;23;20022;-88
2022/12/14 10:32:37;;;;;;;0.95;0.95;;;;;;;-0.39;100.00;99138.78;6064325;23;20101;-87
2022/12/14 10:35:12;;;;;;;0.35;0.35;;;;;;;-0.28;100.00;99142.31;6039255;23;20015;-88
2022/12/14 10:37:41;;;;;;;0.75;0.57;;;;;;;-0.29;100.00;99135.31;6065937;23;20023;-87
2022/12/14 10:40:19;;;;;;;0.22;0.22;;;;;;;-0.43;100.00;99102.56;6040192;23;20034;-88
2022/12/14 10:42:48;;;;;;;7.20;2.20;;;;;;;-0.26;100.00;99131.81;6066692;23;20015;-88
2022/12/14 10:45:45;;;;;;;1.23;1.13;;;;;;;-0.26;100.00;99131.03;6063806;23;20081;-88
2022/12/14 10:48:26;;;;;;;1.80;1.55;;;;;;;-0.20;100.00;99132.97;6040218;23;20019;-88
2022/12/14 10:51:26;;;;;;;4.30;1.70;;;;;;;-0.15;100.00;99118.97;6063654;23;20440;-88
2022/12/14 10:53:57;;;;;;;0.68;0.68;;;;;;;-0.30;100.00;99078.47;6034613;23;20041;-88
2022/12/14 10:56:26;;;;;;;0.88;0.70;;;;;;;-0.04;100.00;99117.03;6064279;23;20444;-88
2022/12/14 10:59:32;;;;;;;1.77;0.90;;;;;;;-0.29;100.00;99075.34;6039719;23;20045;-88
2022/12/14 11:02:11;;;;;;;1.15;1.08;;;;;;;-0.27;100.00;99080.41;5986393;23;20027;-88
2022/12/14 11:04:46;;;;;;;6.35;3.17;;;;;;;-0.20;100.00;99081.19;6039594;23;20335;-88
2022/12/14 11:07:17;;;;;;;0.85;0.85;;;;;;;-0.38;100.00;99050.44;6039114;23;20023;-87
2022/12/14 11:09:43;;;;;;;1.85;1.75;;;;;;;-0.30;100.00;99053.94;6063531;23;20015;-88
2022/12/14 11:12:29;;;;;;;2.72;1.65;;;;;;;-0.14;100.00;99073.41;6039092;23;20015;-88
2022/12/14 11:15:01;;;;;;;0.77;0.77;;;;;;;-0.09;100.00;99079.28;6039119;23;20527;-88
2022/12/14 11:17:35;;;;;;;2.65;2.45;;;;;;;-0.14;100.00;99071.47;6065677;23;20022;-88
2022/12/14 11:20:20;;;;;;;0.57;0.57;;;;;;;-0.02;100.00;99073.81;6091108;23;20018;-88
2022/12/14 11:22:49;;;;;;;1.08;1.05;;;;;;;0.10;100.00;99063.69;6044955;23;20443;-88
2022/12/14 11:25:26;;;;;;;2.40;2.20;;;;;;;0.04;100.00;99054.34;6071586;23;20451;-88
2022/12/14 11:27:52;;;;;;;2.65;1.98;;;;;;;0.09;100.00;99041.09;6068481;23;20061;-88
2022/12/14 11:30:18;;;;;;;0.93;0.75;;;;;;;0.15;100.00;99031.34;6091375;23;20025;-89
2022/12/14 11:32:46;;;;;;;1.92;1.83;;;;;;;0.24;100.00;99025.50;6092801;23;20081;-88
2022/12/14 11:35:18;;;;;;;0.35;0.35;;;;;;;0.24;100.00;99029.00;6067702;23;20340;-88
2022/12/14 11:37:44;;;;;;;2.60;2.40;;;;;;;0.08;100.00;98997.88;6092501;23;20061;-88
2022/12/14 11:40:22;;;;;;;1.23;1.13;;;;;;;0.04;100.00;98986.19;6068100;23;20018;-88
2022/12/14 11:42:49;;;;;;;0.57;0.57;;;;;;;0.11;100.00;99010.72;6093094;23;20010;-88
2022/12/14 11:45:23;;;;;;;0.93;0.93;;;;;;;0.14;100.00;99013.44;6067901;23;20022;-87
2022/12/14 11:48:18;;;;;;;1.05;1.05;;;;;;;0.20;100.00;99003.69;6068011;23;20018;-87
2022/12/14 11:50:45;;;;;;;7.03;2.03;;;;;;;0.26;100.00;98993.16;6091807;23;20010;-87
2022/12/14 11:53:16;;;;;;;0.20;0.20;;;;;;;0.24;100.00;98990.03;6044605;23;20089;-87
2022/12/14 11:55:54;;;;;;;1.15;0.95;;;;;;;0.27;100.00;98981.06;6093832;23;20018;-87
2022/12/14 11:58:26;;;;;;;4.40;1.50;;;;;;;0.27;100.00;98979.13;6069786;23;20019;-88
2022/12/14 12:00:59;;;;;;;0.03;0.03;;;;;;;0.19;100.00;98950.31;6069767;23;20439;-88